createdAt,value
2023-05-12T00:00:25.886Z,101310.94
2023-05-12T00:02:55.331Z,101309.25
2023-05-12T00:05:22.403Z,101308.88
2023-05-12T00:07:51.479Z,101305.84
2023-05-12T00:10:21.554Z,101321.22
2023-05-12T00:12:48.866Z,101319.88
2023-05-12T00:15:15.702Z,101315.38
2023-05-12T00:17:42.834Z,101310.19
2023-05-12T00:20:11.384Z,101314.03
2023-05-12T00:22:41.733Z,101319.69
2023-05-12T00:25:09.025Z,101315.56
2023-05-12T00:27:38.407Z,101320.00
2023-05-12T00:32:36.690Z,101323.00
2023-05-12T00:35:04.023Z,101322.91
2023-05-12T00:37:30.893Z,101324.59
2023-05-12T00:39:59.877Z,101323.75
2023-05-12T00:42:26.723Z,101323.84
2023-05-12T00:44:55.619Z,101334.50
2023-05-12T00:47:22.635Z,101324.78
2023-05-12T00:49:51.989Z,101322.53
2023-05-12T00:52:19.760Z,101328.75
2023-05-12T00:54:48.297Z,101325.34
2023-05-12T00:57:15.312Z,101333.47
2023-05-12T00:59:42.141Z,101321.31
2023-05-12T01:02:09.080Z,101328.38
2023-05-12T01:04:36.468Z,101325.94
2023-05-12T01:07:10.539Z,101324.22
2023-05-12T01:09:37.482Z,101327.25
2023-05-12T01:12:04.825Z,101325.66
2023-05-12T01:14:34.609Z,101331.78
2023-05-12T01:17:08.893Z,101340.06
2023-05-12T01:19:43.824Z,101334.88
2023-05-12T01:22:12.336Z,101333.75
2023-05-12T01:25:05.647Z,101341.03
2023-05-12T01:27:36.588Z,101344.22
2023-05-12T01:30:07.715Z,101345.63
2023-05-12T01:32:36.522Z,101348.94
2023-05-12T01:35:05.985Z,101351.78
2023-05-12T01:37:32.996Z,101352.53
2023-05-12T01:40:02.980Z,101360.34
2023-05-12T01:42:29.920Z,101359.41
2023-05-12T01:44:56.755Z,101356.84
2023-05-12T01:47:23.762Z,101363.66
2023-05-12T01:49:51.300Z,101360.44
2023-05-12T01:52:18.161Z,101366.66
2023-05-12T01:54:45.039Z,101367.13
2023-05-12T01:57:11.966Z,101366.28
2023-05-12T01:59:41.968Z,101360.34
2023-05-12T02:02:09.055Z,101372.53
2023-05-12T02:04:40.680Z,101371.38
2023-05-12T02:07:07.583Z,101362.81
2023-05-12T02:09:34.521Z,101367.63
2023-05-12T02:12:02.310Z,101375.81
2023-05-12T02:14:29.188Z,101377.69
2023-05-12T02:16:59.040Z,101380.53
2023-05-12T02:19:25.962Z,101381.00
2023-05-12T02:21:54.934Z,101385.16
2023-05-12T02:24:21.794Z,101379.88
2023-05-12T02:26:50.873Z,101384.31
2023-05-12T02:29:18.535Z,101375.53
2023-05-12T02:31:45.833Z,101384.97
2023-05-12T02:34:15.802Z,101377.22
2023-05-12T02:36:42.966Z,101385.63
2023-05-12T02:39:09.889Z,101382.59
2023-05-12T02:41:36.758Z,101375.91
2023-05-12T02:44:03.694Z,101384.22
2023-05-12T02:46:30.523Z,101375.91
2023-05-12T02:48:57.495Z,101375.16
2023-05-12T02:51:28.984Z,101378.94
2023-05-12T02:53:56.324Z,101384.41
2023-05-12T02:56:27.797Z,101378.28
2023-05-12T02:58:57.251Z,101378.25
2023-05-12T03:01:26.855Z,101386.19
2023-05-12T03:03:53.797Z,101378.38
2023-05-12T03:06:20.872Z,101381.56
2023-05-12T03:08:50.390Z,101380.81
2023-05-12T03:11:17.238Z,101384.69
2023-05-12T03:13:44.246Z,101381.00
2023-05-12T03:16:13.159Z,101379.59
2023-05-12T03:18:43.558Z,101384.22
2023-05-12T03:21:13.132Z,101381.19
2023-05-12T03:23:40.087Z,101393.84
2023-05-12T03:26:06.962Z,101389.69
2023-05-12T03:28:33.850Z,101386.56
2023-05-12T03:31:03.259Z,101388.00
2023-05-12T03:33:30.314Z,101380.25
2023-05-12T03:35:57.200Z,101396.75
2023-05-12T03:38:24.098Z,101396.75
2023-05-12T03:40:53.491Z,101400.72
2023-05-12T03:43:27.386Z,101394.31
2023-05-12T03:45:57.212Z,101393.28
2023-05-12T03:48:26.426Z,101402.03
2023-05-12T03:50:53.266Z,101401.47
2023-05-12T03:53:22.213Z,101396.00
2023-05-12T03:55:49.060Z,101408.19
2023-05-12T03:58:16.137Z,101403.66
2023-05-12T04:00:44.165Z,101413.84
2023-05-12T04:03:13.767Z,101417.31
2023-05-12T04:05:42.600Z,101409.97
2023-05-12T04:08:09.931Z,101408.94
2023-05-12T04:10:41.068Z,101417.31
2023-05-12T04:13:11.104Z,101414.59
2023-05-12T04:15:41.009Z,101418.47
2023-05-12T04:18:07.884Z,101426.09
2023-05-12T04:20:34.730Z,101424.22
2023-05-12T04:23:01.578Z,101425.34
2023-05-12T04:25:30.831Z,101424.59
2023-05-12T04:27:57.785Z,101434.59
2023-05-12T04:30:29.384Z,101427.81
2023-05-12T04:32:56.261Z,101440.06
2023-05-12T04:35:25.345Z,101436.75
2023-05-12T04:37:52.612Z,101432.31
2023-05-12T04:40:21.851Z,101435.16
2023-05-12T04:42:49.003Z,101441.19
2023-05-12T04:45:15.981Z,101444.22
2023-05-12T04:47:42.901Z,101451.97
2023-05-12T04:50:12.496Z,101450.38
2023-05-12T04:52:44.126Z,101461.97
2023-05-12T04:55:18.446Z,101460.44
2023-05-12T04:57:47.635Z,101461.00
2023-05-12T05:00:14.995Z,101470.34
2023-05-12T05:02:44.355Z,101466.88
2023-05-12T05:05:11.907Z,101467.13
2023-05-12T05:07:38.894Z,101469.66
2023-05-12T05:10:07.210Z,101467.94
2023-05-12T05:12:34.105Z,101478.91
2023-05-12T05:15:03.166Z,101475.97
2023-05-12T05:17:33.580Z,101484.66
2023-05-12T05:20:00.578Z,101486.63
2023-05-12T05:22:27.531Z,101488.41
2023-05-12T05:24:54.758Z,101483.66
2023-05-12T05:27:21.602Z,101495.66
2023-05-12T05:29:49.374Z,101500.50
2023-05-12T05:32:16.678Z,101494.97
2023-05-12T05:34:45.883Z,101491.38
2023-05-12T05:37:12.945Z,101495.25
2023-05-12T05:39:41.974Z,101504.19
2023-05-12T05:42:08.836Z,101505.50
2023-05-12T05:44:36.093Z,101500.06
2023-05-12T05:47:03.161Z,101499.59
2023-05-12T05:49:32.483Z,101515.34
2023-05-12T05:51:59.303Z,101507.56
2023-05-12T05:54:28.656Z,101504.00
2023-05-12T05:56:55.487Z,101505.38
2023-05-12T05:59:22.366Z,101507.09
2023-05-12T06:01:54.014Z,101512.28
2023-05-12T06:04:21.126Z,101510.22
2023-05-12T06:06:48.231Z,101522.09
2023-05-12T06:09:15.813Z,101526.03
2023-05-12T06:11:45.653Z,101524.25
2023-05-12T06:14:12.543Z,101520.72
2023-05-12T06:16:39.712Z,101528.63
2023-05-12T06:19:09.343Z,101526.19
2023-05-12T06:21:36.293Z,101532.78
2023-05-12T06:24:08.802Z,101536.06
2023-05-12T06:26:36.698Z,101535.69
2023-05-12T06:29:06.598Z,101533.19
2023-05-12T06:31:33.551Z,101536.38
2023-05-12T06:34:03.772Z,101543.38
2023-05-12T06:36:30.701Z,101539.41
2023-05-12T06:38:57.667Z,101544.47
2023-05-12T06:41:27.069Z,101538.34
2023-05-12T06:43:53.998Z,101551.44
2023-05-12T06:46:23.316Z,101545.50
2023-05-12T06:48:50.214Z,101546.69
2023-05-12T06:51:19.306Z,101555.53
2023-05-12T06:53:48.595Z,101554.00
2023-05-12T06:56:17.094Z,101557.09
2023-05-12T06:58:44.313Z,101548.59
2023-05-12T07:01:11.251Z,101551.88
2023-05-12T07:03:38.652Z,101554.94
2023-05-12T07:06:05.776Z,101552.00
2023-05-12T07:08:35.042Z,101553.22
2023-05-12T07:11:02.084Z,101556.94
2023-05-12T07:13:29.222Z,101554.34
2023-05-12T07:15:58.377Z,101560.28
2023-05-12T07:18:25.660Z,101563.19
2023-05-12T07:20:53.330Z,101561.91
2023-05-12T07:23:22.376Z,101566.41
2023-05-12T07:25:52.305Z,101569.09
2023-05-12T07:28:19.194Z,101570.00
2023-05-12T07:30:48.672Z,101569.19
2023-05-12T07:33:15.621Z,101571.84
2023-05-12T07:35:42.540Z,101571.94
2023-05-12T07:38:09.716Z,101573.81
2023-05-12T07:40:36.595Z,101571.44
2023-05-12T07:43:05.989Z,101569.38
2023-05-12T07:45:32.945Z,101573.97
2023-05-12T07:48:02.761Z,101567.50
2023-05-12T07:50:32.319Z,101572.75
2023-05-12T07:52:59.202Z,101568.28
2023-05-12T07:55:28.625Z,101568.75
2023-05-12T07:58:02.614Z,101574.75
2023-05-12T08:00:29.973Z,101568.81
2023-05-12T08:02:57.172Z,101572.75
2023-05-12T08:05:24.250Z,101574.44
2023-05-12T08:07:53.679Z,101577.81
2023-05-12T08:10:20.705Z,101584.56
2023-05-12T08:12:50.695Z,101585.72
2023-05-12T08:15:18.010Z,101579.63
2023-05-12T08:17:45.368Z,101580.84
2023-05-12T08:20:12.801Z,101571.38
2023-05-12T08:22:40.088Z,101572.56
2023-05-12T08:25:12.419Z,101576.91
2023-05-12T08:27:39.785Z,101573.53
2023-05-12T08:30:10.459Z,101575.41
2023-05-12T08:32:37.720Z,101575.84
2023-05-12T08:35:05.214Z,101579.97
2023-05-12T08:37:34.577Z,101585.41
2023-05-12T08:40:02.493Z,101581.09
2023-05-12T08:42:43.765Z,101580.00
2023-05-12T08:45:16.712Z,101582.66
2023-05-12T08:47:46.545Z,101572.13
2023-05-12T08:50:18.029Z,101567.81
2023-05-12T08:52:47.517Z,101570.78
2023-05-12T08:55:15.536Z,101573.72
2023-05-12T08:57:48.364Z,101563.94
2023-05-12T09:00:19.418Z,101565.66
2023-05-12T09:02:55.174Z,101574.66
2023-05-12T09:05:25.240Z,101576.75
2023-05-12T09:07:58.096Z,101576.94
2023-05-12T09:10:35.289Z,101584.81
2023-05-12T09:13:23.046Z,101571.97
2023-05-12T09:15:56.508Z,101577.63
2023-05-12T09:18:26.210Z,101564.94
2023-05-12T09:20:53.142Z,101567.66
2023-05-12T09:23:26.063Z,101567.53
2023-05-12T09:26:02.389Z,101566.69
2023-05-12T09:28:39.372Z,101554.09
2023-05-12T09:31:24.486Z,101559.75
2023-05-12T09:33:52.161Z,101557.44
2023-05-12T09:36:24.226Z,101558.19
2023-05-12T09:39:09.171Z,101554.97
2023-05-12T09:41:37.882Z,101563.69
2023-05-12T09:44:08.996Z,101558.19
2023-05-12T09:46:38.699Z,101554.91
2023-05-12T09:49:06.010Z,101552.03
2023-05-12T09:51:33.258Z,101557.84
2023-05-12T09:54:00.815Z,101554.81
2023-05-12T09:56:30.116Z,101558.34
2023-05-12T09:58:58.237Z,101556.16
2023-05-12T10:01:27.215Z,101548.16
2023-05-12T10:03:58.990Z,101551.63
2023-05-12T10:06:28.389Z,101543.34
2023-05-12T10:09:16.584Z,101551.72
2023-05-12T10:11:44.282Z,101561.69
2023-05-12T10:14:13.420Z,101552.72
2023-05-12T10:16:41.628Z,101549.97
2023-05-12T10:19:10.546Z,101561.31
2023-05-12T10:21:43.382Z,101560.22
2023-05-12T10:24:10.473Z,101552.47
2023-05-12T10:26:39.783Z,101556.09
2023-05-12T10:29:07.056Z,101558.88
2023-05-12T10:31:37.577Z,101552.63
2023-05-12T10:34:04.738Z,101553.22
2023-05-12T10:36:31.962Z,101551.69
2023-05-12T10:39:06.345Z,101550.25
2023-05-12T10:41:35.479Z,101550.63
2023-05-12T10:44:02.492Z,101549.75
2023-05-12T10:46:30.420Z,101546.47
2023-05-12T10:49:10.217Z,101555.31
2023-05-12T10:51:47.082Z,101551.19
2023-05-12T10:54:24.122Z,101550.66
2023-05-12T10:56:51.924Z,101552.53
2023-05-12T10:59:24.191Z,101553.00
2023-05-12T11:02:03.089Z,101550.66
2023-05-12T11:04:46.889Z,101544.19
2023-05-12T11:07:18.573Z,101549.00
2023-05-12T11:12:17.594Z,101538.38
2023-05-12T11:14:46.461Z,101545.88
2023-05-12T11:17:16.342Z,101537.88
2023-05-12T11:19:50.728Z,101539.81
2023-05-12T11:22:22.002Z,101543.19
2023-05-12T11:24:53.000Z,101542.84
2023-05-12T11:27:22.824Z,101546.56
2023-05-12T11:30:04.714Z,101543.81
2023-05-12T11:32:33.860Z,101546.44
2023-05-12T11:35:19.852Z,101541.22
2023-05-12T11:37:47.328Z,101541.84
2023-05-12T11:40:20.993Z,101548.06
2023-05-12T11:42:55.743Z,101549.03
2023-05-12T11:45:30.581Z,101552.34
2023-05-12T11:48:14.510Z,101549.97
2023-05-12T11:50:49.069Z,101546.06
2023-05-12T11:53:18.886Z,101535.97
2023-05-12T11:55:57.140Z,101548.31
2023-05-12T11:58:30.257Z,101552.97
2023-05-12T12:01:10.114Z,101540.97
2023-05-12T12:03:50.015Z,101541.63
2023-05-12T12:06:17.629Z,101547.13
2023-05-12T12:09:00.348Z,101539.88
2023-05-12T12:11:28.278Z,101543.25
2023-05-12T12:13:58.193Z,101552.19
2023-05-12T12:16:30.039Z,101547.81
2023-05-12T12:18:57.640Z,101551.09
2023-05-12T12:21:28.395Z,101549.28
2023-05-12T12:23:57.668Z,101553.38
2023-05-12T12:26:24.520Z,101546.88
2023-05-12T12:28:56.340Z,101558.50
2023-05-12T12:31:23.520Z,101555.50
2023-05-12T12:33:50.426Z,101552.41
2023-05-12T12:36:19.771Z,101552.50
2023-05-12T12:38:49.161Z,101549.81
2023-05-12T12:41:16.160Z,101541.59
2023-05-12T12:43:43.118Z,101536.50
2023-05-12T12:46:12.454Z,101528.13
2023-05-12T12:48:42.400Z,101534.91
2023-05-12T12:51:14.390Z,101539.25
2023-05-12T12:53:43.361Z,101543.19
2023-05-12T12:56:10.313Z,101532.47
2023-05-12T12:58:39.461Z,101538.94
2023-05-12T13:01:06.835Z,101536.78
2023-05-12T13:03:33.749Z,101533.84
2023-05-12T13:06:00.746Z,101530.66
2023-05-12T13:08:28.186Z,101531.25
2023-05-12T13:10:55.788Z,101530.31
2023-05-12T13:13:24.478Z,101534.34
2023-05-12T13:15:53.177Z,101538.41
2023-05-12T13:18:22.819Z,101533.09
2023-05-12T13:20:54.144Z,101534.13
2023-05-12T13:23:21.419Z,101527.41
2023-05-12T13:25:51.982Z,101522.91
2023-05-12T13:28:26.484Z,101527.63
2023-05-12T13:30:53.426Z,101530.75
2023-05-12T13:33:22.957Z,101525.22
2023-05-12T13:35:49.963Z,101516.09
2023-05-12T13:38:19.917Z,101507.22
2023-05-12T13:40:48.964Z,101526.31
2023-05-12T13:43:15.843Z,101521.59
2023-05-12T13:45:42.848Z,101513.34
2023-05-12T13:48:10.032Z,101515.94
2023-05-12T13:50:39.265Z,101513.34
2023-05-12T13:53:08.689Z,101506.72
2023-05-12T13:55:40.585Z,101516.63
2023-05-12T13:58:10.054Z,101511.50
2023-05-12T14:00:37.056Z,101517.03
2023-05-12T14:03:04.178Z,101501.41
2023-05-12T14:05:31.186Z,101512.84
2023-05-12T14:07:58.169Z,101507.69
2023-05-12T14:10:28.108Z,101504.28
2023-05-12T14:12:55.491Z,101505.91
2023-05-12T14:15:36.093Z,101510.38
2023-05-12T14:18:09.595Z,101508.63
2023-05-12T14:20:36.616Z,101503.41
2023-05-12T14:23:03.537Z,101506.13
2023-05-12T14:25:30.823Z,101511.13
2023-05-12T14:27:57.835Z,101504.94
2023-05-12T14:30:27.144Z,101502.66
2023-05-12T14:32:58.696Z,101510.16
2023-05-12T14:35:27.565Z,101509.13
2023-05-12T14:37:55.593Z,101503.41
2023-05-12T14:40:31.998Z,101503.22
2023-05-12T14:42:59.985Z,101506.94
2023-05-12T14:45:27.090Z,101510.47
2023-05-12T14:47:59.606Z,101503.38
2023-05-12T14:50:28.233Z,101497.16
2023-05-12T14:52:57.405Z,101499.38
2023-05-12T14:55:29.837Z,101506.34
2023-05-12T14:57:58.829Z,101501.81
2023-05-12T15:00:25.911Z,101507.00
2023-05-12T15:02:53.029Z,101510.81
2023-05-12T15:05:29.525Z,101505.44
2023-05-12T15:08:03.500Z,101507.28
2023-05-12T15:10:30.434Z,101511.00
2023-05-12T15:12:57.277Z,101504.78
2023-05-12T15:15:24.455Z,101501.91
2023-05-12T15:17:56.459Z,101504.19
2023-05-12T15:20:23.320Z,101506.78
2023-05-12T15:22:50.360Z,101509.22
2023-05-12T15:25:17.224Z,101503.69
2023-05-12T15:27:48.701Z,101500.28
2023-05-12T15:30:18.108Z,101504.06
2023-05-12T15:32:47.175Z,101502.72
2023-05-12T15:35:14.117Z,101498.19
2023-05-12T15:37:40.974Z,101506.44
2023-05-12T15:40:13.052Z,101509.41
2023-05-12T15:42:40.880Z,101516.00
2023-05-12T15:45:09.702Z,101505.59
2023-05-12T15:47:36.702Z,101515.47
2023-05-12T15:50:04.343Z,101503.66
2023-05-12T15:52:31.302Z,101507.06
2023-05-12T15:54:58.251Z,101499.44
2023-05-12T15:57:25.143Z,101502.19
2023-05-12T15:59:58.680Z,101505.50
2023-05-12T16:02:28.094Z,101504.09
2023-05-12T16:04:55.007Z,101498.28
2023-05-12T16:07:29.375Z,101514.72
2023-05-12T16:09:57.358Z,101504.50
2023-05-12T16:12:24.286Z,101493.69
2023-05-12T16:14:53.716Z,101499.19
2023-05-12T16:17:23.767Z,101499.47
2023-05-12T16:19:53.109Z,101503.03
2023-05-12T16:22:24.737Z,101503.66
2023-05-12T16:24:53.622Z,101508.22
2023-05-12T16:27:20.520Z,101504.91
2023-05-12T16:29:49.426Z,101504.75
2023-05-12T16:32:17.390Z,101502.00
2023-05-12T16:34:46.930Z,101507.56
2023-05-12T16:37:16.613Z,101501.81
2023-05-12T16:39:43.524Z,101502.84
2023-05-12T16:42:13.091Z,101504.88
2023-05-12T16:44:40.201Z,101497.84
2023-05-12T16:47:09.336Z,101504.41
2023-05-12T16:49:38.691Z,101496.06
2023-05-12T16:52:08.780Z,101503.66
2023-05-12T16:54:36.711Z,101507.66
2023-05-12T16:57:06.102Z,101501.00
2023-05-12T16:59:33.063Z,101498.53
2023-05-12T17:02:02.287Z,101502.97
2023-05-12T17:04:29.370Z,101502.41
2023-05-12T17:06:56.274Z,101496.31
2023-05-12T17:09:25.273Z,101497.84
2023-05-12T17:11:55.304Z,101500.78
2023-05-12T17:14:23.421Z,101503.91
2023-05-12T17:16:50.335Z,101506.09
2023-05-12T17:19:22.277Z,101509.38
2023-05-12T17:21:49.261Z,101510.72
2023-05-12T17:24:19.665Z,101515.28
2023-05-12T17:26:46.539Z,101521.06
2023-05-12T17:29:16.035Z,101517.19
2023-05-12T17:31:43.144Z,101523.94
2023-05-12T17:34:10.240Z,101530.09
2023-05-12T17:36:39.408Z,101518.78
2023-05-12T17:39:06.758Z,101518.66
2023-05-12T17:41:33.716Z,101527.66
2023-05-12T17:44:03.236Z,101535.25
2023-05-12T17:46:30.234Z,101533.78
2023-05-12T17:48:57.113Z,101533.31
2023-05-12T17:51:24.004Z,101535.38
2023-05-12T17:53:51.076Z,101538.06
2023-05-12T17:56:17.917Z,101547.88
2023-05-12T17:58:44.778Z,101549.34
2023-05-12T18:01:11.670Z,101549.22
2023-05-12T18:03:38.815Z,101551.03
2023-05-12T18:06:05.871Z,101557.25
2023-05-12T18:08:35.834Z,101560.53
2023-05-12T18:11:02.705Z,101559.88
2023-05-12T18:13:31.779Z,101562.59
2023-05-12T18:15:58.668Z,101556.22
2023-05-12T18:18:26.279Z,101559.59
2023-05-12T18:20:55.916Z,101556.69
2023-05-12T18:23:22.823Z,101564.81
2023-05-12T18:25:51.900Z,101568.28
2023-05-12T18:28:21.334Z,101563.91
2023-05-12T18:30:48.269Z,101566.28
2023-05-12T18:33:17.733Z,101571.44
2023-05-12T18:35:47.191Z,101573.44
2023-05-12T18:38:14.206Z,101580.03
2023-05-12T18:40:44.839Z,101573.66
2023-05-12T18:43:12.029Z,101575.03
2023-05-12T18:45:41.390Z,101585.72
2023-05-12T18:48:08.325Z,101584.41
2023-05-12T18:50:35.345Z,101576.13
2023-05-12T18:53:02.434Z,101589.38
2023-05-12T18:55:31.998Z,101592.97
2023-05-12T18:58:01.850Z,101588.97
2023-05-12T19:00:31.925Z,101597.09
2023-05-12T19:02:59.477Z,101590.91
2023-05-12T19:05:26.765Z,101601.97
2023-05-12T19:07:53.683Z,101604.56
2023-05-12T19:10:23.034Z,101606.53
2023-05-12T19:12:52.317Z,101614.41
2023-05-12T19:15:21.936Z,101620.16
2023-05-12T19:17:49.597Z,101612.34
2023-05-12T19:20:16.554Z,101621.47
2023-05-12T19:22:44.056Z,101620.81
2023-05-12T19:25:11.763Z,101619.66
2023-05-12T19:27:38.822Z,101623.03
2023-05-12T19:30:06.671Z,101625.81
2023-05-12T19:32:33.815Z,101620.50
2023-05-12T19:35:04.855Z,101631.31
2023-05-12T19:37:33.332Z,101638.34
2023-05-12T19:40:00.388Z,101643.00
2023-05-12T19:42:27.783Z,101646.81
2023-05-12T19:44:56.949Z,101637.28
2023-05-12T19:47:25.637Z,101646.81
2023-05-12T19:49:54.012Z,101651.88
2023-05-12T19:52:22.112Z,101648.06
2023-05-12T19:54:49.280Z,101650.75
2023-05-12T19:57:21.357Z,101655.19
2023-05-12T19:59:49.664Z,101654.78
2023-05-12T20:02:17.246Z,101662.16
2023-05-12T20:04:44.732Z,101655.97
2023-05-12T20:07:14.296Z,101660.78
2023-05-12T20:09:44.783Z,101659.56
2023-05-12T20:12:14.528Z,101656.97
2023-05-12T20:14:41.821Z,101660.72
2023-05-12T20:17:12.387Z,101669.41
2023-05-12T20:19:40.152Z,101664.06
2023-05-12T20:22:07.791Z,101660.75
2023-05-12T20:24:45.259Z,101670.38
2023-05-12T20:27:18.315Z,101670.91
2023-05-12T20:29:49.607Z,101660.97
2023-05-12T20:32:18.759Z,101664.97
2023-05-12T20:34:45.979Z,101667.38
2023-05-12T20:37:14.050Z,101673.91
2023-05-12T20:39:42.161Z,101673.03
2023-05-12T20:42:12.290Z,101674.06
2023-05-12T20:44:39.771Z,101670.13
2023-05-12T20:47:07.109Z,101668.28
2023-05-12T20:49:34.414Z,101678.91
2023-05-12T20:52:04.426Z,101676.53
2023-05-12T20:54:32.628Z,101683.94
2023-05-12T20:57:02.314Z,101688.78
2023-05-12T20:59:29.408Z,101686.13
2023-05-12T21:01:58.982Z,101686.59
2023-05-12T21:04:30.393Z,101685.41
2023-05-12T21:07:00.398Z,101690.97
2023-05-12T21:09:28.662Z,101690.06
2023-05-12T21:12:02.295Z,101695.22
2023-05-12T21:14:31.798Z,101693.47
2023-05-12T21:16:58.930Z,101705.50
2023-05-12T21:19:30.690Z,101700.84
2023-05-12T21:22:00.907Z,101707.38
2023-05-12T21:24:28.078Z,101707.41
2023-05-12T21:26:55.419Z,101709.59
2023-05-12T21:29:22.563Z,101706.66
2023-05-12T21:31:49.562Z,101705.59
2023-05-12T21:34:16.619Z,101705.72
2023-05-12T21:36:43.559Z,101704.66
2023-05-12T21:39:10.504Z,101703.34
2023-05-12T21:41:40.257Z,101704.03
2023-05-12T21:44:09.210Z,101712.06
2023-05-12T21:46:40.139Z,101708.38
2023-05-12T21:49:07.212Z,101711.50
2023-05-12T21:51:34.382Z,101717.22
2023-05-12T21:54:06.020Z,101712.59
2023-05-12T21:56:33.387Z,101716.09
2023-05-12T21:59:03.227Z,101714.19
2023-05-12T22:01:32.454Z,101713.72
2023-05-12T22:03:59.635Z,101712.28
2023-05-12T22:06:26.989Z,101710.97
2023-05-12T22:08:54.195Z,101716.25
2023-05-12T22:11:21.773Z,101707.56
2023-05-12T22:13:51.397Z,101708.31
2023-05-12T22:16:23.612Z,101710.41
2023-05-12T22:18:55.342Z,101712.88
2023-05-12T22:21:24.928Z,101711.34
2023-05-12T22:23:54.158Z,101713.41
2023-05-12T22:26:21.282Z,101715.69
2023-05-12T22:28:50.325Z,101723.34
2023-05-12T22:31:17.308Z,101717.28
2023-05-12T22:33:44.851Z,101717.56
2023-05-12T22:36:11.798Z,101720.03
2023-05-12T22:38:38.884Z,101727.78
2023-05-12T22:41:05.960Z,101724.47
2023-05-12T22:43:33.109Z,101723.69
2023-05-12T22:46:00.171Z,101722.56
2023-05-12T22:48:27.374Z,101730.22
2023-05-12T22:50:54.807Z,101717.34
2023-05-12T22:53:22.053Z,101724.88
2023-05-12T22:55:49.462Z,101728.19
2023-05-12T22:58:21.012Z,101728.97
2023-05-12T23:00:48.120Z,101729.09
2023-05-12T23:03:15.175Z,101729.31
2023-05-12T23:05:42.140Z,101724.94
2023-05-12T23:08:09.509Z,101725.44
2023-05-12T23:10:36.552Z,101728.84
2023-05-12T23:13:03.424Z,101727.38
2023-05-12T23:15:30.725Z,101724.94
2023-05-12T23:18:00.173Z,101721.97
2023-05-12T23:20:27.146Z,101725.06
2023-05-12T23:22:54.023Z,101715.03
2023-05-12T23:25:23.588Z,101718.13
2023-05-12T23:27:53.010Z,101724.31
2023-05-12T23:30:20.072Z,101729.63
2023-05-12T23:32:50.422Z,101725.13
2023-05-12T23:35:20.148Z,101731.94
2023-05-12T23:37:49.613Z,101729.69
2023-05-12T23:40:16.733Z,101732.97
2023-05-12T23:42:43.578Z,101715.09
2023-05-12T23:45:13.548Z,101722.13
2023-05-12T23:47:40.729Z,101722.13
2023-05-12T23:50:08.956Z,101715.66
2023-05-12T23:52:36.039Z,101714.81
2023-05-12T23:55:02.964Z,101723.84
2023-05-12T23:57:29.874Z,101717.19
2023-05-12T23:59:59.765Z,101714.75
